createdAt,value
2024-04-18T00:00:24.204Z,55.30
2024-04-18T00:02:54.182Z,55.30
2024-04-18T00:05:21.410Z,55.30
2024-04-18T00:07:48.707Z,55.30
2024-04-18T00:10:16.423Z,55.30
2024-04-18T00:12:43.678Z,55.30
2024-04-18T00:15:10.848Z,55.40
2024-04-18T00:17:38.538Z,55.30
2024-04-18T00:20:09.515Z,55.40
2024-04-18T00:22:36.756Z,55.40
2024-04-18T00:25:04.173Z,55.40
2024-04-18T00:27:31.451Z,55.30
2024-04-18T00:29:58.602Z,55.30
2024-04-18T00:32:25.733Z,55.40
2024-04-18T00:34:52.936Z,55.40
2024-04-18T00:37:22.661Z,55.40
2024-04-18T00:39:49.984Z,55.50
2024-04-18T00:42:17.199Z,55.40
2024-04-18T00:44:44.959Z,55.40
2024-04-18T00:47:13.613Z,55.20
2024-04-18T00:49:41.369Z,55.20
2024-04-18T00:52:12.130Z,55.10
2024-04-18T00:54:42.131Z,55.10
2024-04-18T00:57:09.476Z,55.20
2024-04-18T01:02:25.143Z,55.30
2024-04-18T01:04:52.750Z,55.30
2024-04-18T01:07:19.979Z,55.30
2024-04-18T01:09:49.812Z,55.40
2024-04-18T01:12:17.120Z,55.40
2024-04-18T01:14:44.257Z,55.40
2024-04-18T01:17:11.397Z,55.50
2024-04-18T01:19:39.467Z,55.60
2024-04-18T01:22:06.752Z,55.60
2024-04-18T01:24:34.357Z,55.70
2024-04-18T01:27:05.013Z,55.70
2024-04-18T01:29:32.132Z,55.80
2024-04-18T01:31:59.364Z,55.80
2024-04-18T01:34:26.623Z,55.80
2024-04-18T01:36:53.874Z,55.80
2024-04-18T01:39:21.148Z,55.80
2024-04-18T01:41:48.306Z,55.80
2024-04-18T01:44:18.032Z,55.90
2024-04-18T01:46:45.213Z,55.90
2024-04-18T01:49:12.482Z,55.90
2024-04-18T01:51:39.808Z,55.90
2024-04-18T01:54:07.075Z,55.80
2024-04-18T01:56:34.270Z,55.80
2024-04-18T01:59:01.457Z,55.80
2024-04-18T02:01:31.389Z,55.90
2024-04-18T02:03:58.744Z,56.00
2024-04-18T02:06:25.977Z,56.00
2024-04-18T02:08:53.198Z,56.10
2024-04-18T02:11:20.313Z,56.00
2024-04-18T02:13:47.490Z,56.00
2024-04-18T02:16:14.691Z,56.10
2024-04-18T02:18:44.498Z,56.10
2024-04-18T02:21:11.702Z,56.20
2024-04-18T02:23:38.794Z,56.20
2024-04-18T02:26:06.178Z,56.30
2024-04-18T02:28:33.265Z,56.40
2024-04-18T02:31:00.460Z,56.50
2024-04-18T02:33:27.745Z,56.60
2024-04-18T02:35:57.494Z,56.60
2024-04-18T02:38:24.652Z,56.70
2024-04-18T02:40:51.722Z,56.80
2024-04-18T02:43:18.802Z,56.80
2024-04-18T02:45:46.081Z,56.80
2024-04-18T02:48:13.414Z,56.80
2024-04-18T02:50:42.348Z,56.70
2024-04-18T02:53:12.060Z,56.80
2024-04-18T02:55:39.259Z,56.90
2024-04-18T02:58:07.730Z,56.90
2024-04-18T03:00:37.095Z,57.00
2024-04-18T03:03:04.370Z,57.00
2024-04-18T03:05:31.561Z,57.00
2024-04-18T03:07:59.154Z,57.10
2024-04-18T03:10:29.009Z,57.10
2024-04-18T03:12:56.395Z,57.20
2024-04-18T03:15:23.679Z,57.20
2024-04-18T03:17:52.025Z,57.20
2024-04-18T03:20:19.248Z,57.30
2024-04-18T03:22:46.413Z,57.20
2024-04-18T03:25:13.516Z,57.30
2024-04-18T03:27:43.508Z,57.40
2024-04-18T03:30:11.251Z,57.50
2024-04-18T03:32:38.865Z,57.50
2024-04-18T03:35:06.605Z,57.50
2024-04-18T03:37:35.966Z,57.40
2024-04-18T03:40:05.319Z,57.40
2024-04-18T03:42:32.634Z,57.40
2024-04-18T03:45:02.376Z,57.40
2024-04-18T03:47:29.542Z,57.40
2024-04-18T03:49:56.630Z,57.40
2024-04-18T03:52:23.889Z,57.40
2024-04-18T03:55:00.803Z,57.50
2024-04-18T03:57:29.741Z,57.70
2024-04-18T03:59:56.916Z,57.50
2024-04-18T04:02:26.785Z,57.50
2024-04-18T04:04:53.911Z,57.60
2024-04-18T04:07:22.090Z,57.60
2024-04-18T04:09:49.222Z,57.60
2024-04-18T04:12:16.517Z,57.50
2024-04-18T04:14:43.710Z,57.50
2024-04-18T04:17:10.875Z,57.50
2024-04-18T04:19:40.775Z,57.40
2024-04-18T04:22:08.061Z,57.50
2024-04-18T04:24:35.288Z,57.40
2024-04-18T04:27:02.476Z,57.50
2024-04-18T04:32:20.692Z,57.70
2024-04-18T04:34:51.756Z,57.80
2024-04-18T04:37:19.273Z,57.80
2024-04-18T04:42:31.078Z,57.70
2024-04-18T04:44:58.259Z,57.70
2024-04-18T04:47:25.452Z,57.80
2024-04-18T04:49:55.300Z,57.70
2024-04-18T04:52:22.588Z,57.70
2024-04-18T04:57:35.051Z,57.80
2024-04-18T05:00:02.420Z,57.90
2024-04-18T05:02:29.567Z,57.90
2024-04-18T05:04:59.416Z,57.90
2024-04-18T05:07:26.558Z,57.90
2024-04-18T05:09:53.967Z,57.90
2024-04-18T05:12:21.336Z,57.90
2024-04-18T05:14:48.659Z,58.00
2024-04-18T05:17:15.736Z,58.00
2024-04-18T05:19:42.937Z,57.60
2024-04-18T05:24:56.901Z,58.20
2024-04-18T05:27:24.171Z,58.20
2024-04-18T05:29:51.291Z,58.20
2024-04-18T05:32:18.542Z,58.20
2024-04-18T05:34:45.664Z,58.10
2024-04-18T05:37:15.861Z,58.20
2024-04-18T05:39:44.168Z,58.10
2024-04-18T05:42:11.438Z,58.10
2024-04-18T05:44:38.910Z,58.20
2024-04-18T05:47:06.209Z,58.20
2024-04-18T05:49:33.356Z,58.30
2024-04-18T05:52:00.625Z,58.40
2024-04-18T05:54:30.871Z,58.40
2024-04-18T05:56:58.078Z,58.40
2024-04-18T05:59:25.200Z,58.40
2024-04-18T06:01:52.382Z,58.40
2024-04-18T06:04:19.537Z,58.40
2024-04-18T06:06:46.951Z,58.40
2024-04-18T06:09:14.183Z,58.40
2024-04-18T06:11:44.000Z,58.40
2024-04-18T06:14:11.388Z,58.40
2024-04-18T06:16:38.779Z,58.30
2024-04-18T06:19:06.065Z,58.40
2024-04-18T06:21:33.315Z,58.30
2024-04-18T06:24:00.582Z,58.30
2024-04-18T06:26:27.709Z,58.20
2024-04-18T06:28:57.547Z,58.00
2024-04-18T06:31:24.657Z,57.90
2024-04-18T06:33:52.033Z,57.90
2024-04-18T06:36:19.309Z,57.80
2024-04-18T06:38:46.463Z,57.80
2024-04-18T06:41:13.711Z,57.70
2024-04-18T06:43:40.881Z,57.50
2024-04-18T06:46:10.676Z,57.50
2024-04-18T06:48:37.960Z,57.50
2024-04-18T06:53:50.135Z,57.60
2024-04-18T06:56:18.829Z,57.60
2024-04-18T06:58:46.726Z,57.60
2024-04-18T07:01:16.767Z,57.60
2024-04-18T07:03:44.072Z,57.60
2024-04-18T07:06:11.342Z,57.50
2024-04-18T07:08:38.460Z,57.40
2024-04-18T07:11:05.650Z,57.40
2024-04-18T07:13:34.726Z,57.30
2024-04-18T07:16:05.363Z,57.30
2024-04-18T07:18:35.343Z,57.40
2024-04-18T07:21:02.611Z,57.40
2024-04-18T07:23:29.777Z,57.40
2024-04-18T07:25:56.898Z,57.40
2024-04-18T07:28:24.170Z,57.30
2024-04-18T07:30:51.437Z,57.30
2024-04-18T07:33:18.834Z,57.80
2024-04-18T07:35:56.967Z,57.20
2024-04-18T07:38:24.124Z,57.20
2024-04-18T07:40:51.322Z,57.20
2024-04-18T07:43:18.479Z,57.10
2024-04-18T07:45:45.759Z,57.00
2024-04-18T07:48:13.701Z,57.00
2024-04-18T07:50:41.108Z,57.00
2024-04-18T07:53:10.991Z,57.00
2024-04-18T07:55:38.400Z,56.90
2024-04-18T07:58:06.344Z,57.00
2024-04-18T08:00:36.120Z,57.10
2024-04-18T08:03:06.203Z,57.00
2024-04-18T08:05:36.946Z,56.80
2024-04-18T08:08:08.156Z,56.80
2024-04-18T08:10:52.979Z,56.50
2024-04-18T08:13:30.780Z,56.40
2024-04-18T08:16:02.552Z,56.30
2024-04-18T08:18:30.169Z,56.10
2024-04-18T08:20:57.328Z,56.10
2024-04-18T08:23:24.646Z,56.00
2024-04-18T08:25:54.453Z,56.10
2024-04-18T08:28:21.745Z,56.10
2024-04-18T08:30:49.122Z,56.10
2024-04-18T08:33:16.408Z,56.20
2024-04-18T08:35:45.104Z,56.20
2024-04-18T08:38:12.225Z,56.30
2024-04-18T08:40:39.604Z,56.40
2024-04-18T08:43:09.446Z,56.50
2024-04-18T08:45:37.677Z,56.60
2024-04-18T08:48:07.509Z,56.60
2024-04-18T08:50:36.016Z,56.90
2024-04-18T08:53:05.500Z,57.20
2024-04-18T08:55:34.033Z,57.40
2024-04-18T08:58:05.619Z,57.60
2024-04-18T09:00:35.537Z,57.60
2024-04-18T09:03:03.810Z,57.60
2024-04-18T09:05:31.966Z,57.60
2024-04-18T09:07:59.427Z,57.70
2024-04-18T09:10:29.627Z,57.70
2024-04-18T09:13:00.000Z,57.70
2024-04-18T09:15:28.995Z,57.60
2024-04-18T09:18:06.772Z,57.50
2024-04-18T09:20:35.267Z,57.40
2024-04-18T09:23:02.423Z,57.20
2024-04-18T09:25:29.669Z,57.00
2024-04-18T09:27:56.807Z,56.80
2024-04-18T09:30:24.323Z,56.80
2024-04-18T09:32:51.746Z,56.80
2024-04-18T09:35:26.011Z,56.80
2024-04-18T09:38:00.817Z,56.90
2024-04-18T09:40:35.648Z,57.00
2024-04-18T09:46:03.999Z,57.10
2024-04-18T09:48:32.315Z,57.10
2024-04-18T09:53:48.357Z,57.00
2024-04-18T09:56:16.066Z,57.00
2024-04-18T09:58:44.472Z,57.00
2024-04-18T10:01:12.122Z,57.10
2024-04-18T10:06:31.010Z,57.30
2024-04-18T10:08:59.426Z,57.30
2024-04-18T10:11:27.867Z,57.20
2024-04-18T10:14:01.231Z,57.40
2024-04-18T10:16:29.358Z,57.50
2024-04-18T10:18:57.057Z,57.50
2024-04-18T10:24:13.347Z,57.40
2024-04-18T10:26:40.661Z,57.40
2024-04-18T10:29:22.257Z,57.40
2024-04-18T10:31:49.522Z,57.30
2024-04-18T10:34:16.718Z,57.20
2024-04-18T10:36:47.142Z,57.20
2024-04-18T10:39:29.705Z,56.90
2024-04-18T10:41:59.271Z,56.90
2024-04-18T10:44:26.629Z,56.80
2024-04-18T10:46:55.542Z,56.90
2024-04-18T10:49:23.195Z,56.90
2024-04-18T10:51:56.590Z,56.90
2024-04-18T10:54:23.858Z,56.80
2024-04-18T10:56:51.564Z,57.00
2024-04-18T10:59:18.753Z,57.10
2024-04-18T11:04:30.418Z,57.30
2024-04-18T11:07:01.111Z,57.20
2024-04-18T11:09:28.315Z,57.60
2024-04-18T11:11:56.275Z,57.70
2024-04-18T11:14:23.592Z,57.60
2024-04-18T11:16:56.858Z,57.20
2024-04-18T11:19:24.584Z,57.00
2024-04-18T11:21:51.775Z,56.80
2024-04-18T11:24:22.391Z,56.70
2024-04-18T11:26:50.404Z,56.40
2024-04-18T11:29:17.596Z,56.10
2024-04-18T11:31:44.879Z,56.10
2024-04-18T11:34:12.225Z,56.00
2024-04-18T11:36:39.508Z,55.90
2024-04-18T11:39:07.153Z,55.70
2024-04-18T11:41:36.931Z,55.60
2024-04-18T11:44:06.268Z,55.30
2024-04-18T11:46:33.430Z,55.20
2024-04-18T11:49:00.842Z,55.30
2024-04-18T11:51:28.192Z,55.30
2024-04-18T11:53:55.480Z,55.40
2024-04-18T11:56:22.637Z,55.50
2024-04-18T11:58:52.582Z,55.40
2024-04-18T12:01:19.760Z,55.50
2024-04-18T12:06:31.909Z,55.40
2024-04-18T12:08:59.268Z,55.30
2024-04-18T12:11:26.409Z,55.10
2024-04-18T12:13:56.336Z,54.60
2024-04-18T12:16:23.800Z,54.20
2024-04-18T12:18:50.901Z,54.10
2024-04-18T12:21:18.184Z,53.70
2024-04-18T12:23:45.322Z,53.50
2024-04-18T12:26:12.939Z,53.30
2024-04-18T12:28:40.259Z,53.20
2024-04-18T12:33:54.484Z,53.10
2024-04-18T12:36:21.803Z,53.20
2024-04-18T12:41:33.533Z,53.00
2024-04-18T12:44:00.645Z,53.10
2024-04-18T12:46:30.586Z,53.00
2024-04-18T12:48:58.331Z,52.90
2024-04-18T12:51:25.991Z,52.80
2024-04-18T12:53:55.698Z,52.70
2024-04-18T12:56:24.686Z,52.70
2024-04-18T12:58:51.842Z,52.70
2024-04-18T13:01:19.034Z,52.80
2024-04-18T13:03:50.026Z,52.90
2024-04-18T13:06:18.658Z,52.70
2024-04-18T13:08:45.862Z,52.70
2024-04-18T13:11:13.022Z,52.60
2024-04-18T13:13:40.143Z,52.60
2024-04-18T13:16:07.766Z,52.60
2024-04-18T13:18:34.923Z,52.70
2024-04-18T13:21:05.347Z,52.70
2024-04-18T13:23:32.559Z,52.60
2024-04-18T13:25:59.758Z,52.80
2024-04-18T13:28:27.052Z,52.90
2024-04-18T13:30:54.310Z,53.00
2024-04-18T13:33:21.604Z,53.20
2024-04-18T13:35:49.205Z,53.50
2024-04-18T13:38:18.952Z,54.10
2024-04-18T13:40:46.168Z,54.00
2024-04-18T13:43:13.344Z,53.90
2024-04-18T13:45:40.479Z,53.90
2024-04-18T13:48:08.416Z,53.80
2024-04-18T13:50:35.744Z,53.70
2024-04-18T13:53:02.872Z,53.60
2024-04-18T13:55:32.627Z,53.90
2024-04-18T13:58:00.088Z,53.80
2024-04-18T14:00:27.238Z,53.80
2024-04-18T14:02:54.526Z,53.70
2024-04-18T14:05:21.863Z,54.40
2024-04-18T14:07:49.304Z,53.80
2024-04-18T14:10:16.553Z,53.80
2024-04-18T14:12:46.518Z,53.60
2024-04-18T14:15:13.891Z,53.60
2024-04-18T14:20:25.757Z,53.50
2024-04-18T14:22:52.962Z,53.40
2024-04-18T14:25:20.098Z,53.30
2024-04-18T14:27:49.911Z,53.30
2024-04-18T14:33:01.868Z,53.40
2024-04-18T14:35:29.122Z,53.50
2024-04-18T14:37:58.761Z,53.70
2024-04-18T14:43:14.761Z,53.70
2024-04-18T14:45:42.025Z,53.80
2024-04-18T14:48:09.486Z,54.00
2024-04-18T14:50:36.694Z,54.00
2024-04-18T14:55:48.495Z,53.80
2024-04-18T14:58:18.847Z,54.00
2024-04-18T15:00:48.324Z,54.40
2024-04-18T15:03:15.711Z,54.50
2024-04-18T15:05:49.939Z,54.40
2024-04-18T15:08:17.153Z,54.10
2024-04-18T15:10:44.252Z,54.10
2024-04-18T15:13:11.437Z,54.10
2024-04-18T15:15:42.354Z,54.20
2024-04-18T15:18:09.677Z,54.30
2024-04-18T15:20:37.037Z,54.50
2024-04-18T15:23:04.439Z,54.20
2024-04-18T15:25:31.635Z,53.90
2024-04-18T15:27:58.830Z,53.80
2024-04-18T15:30:26.039Z,53.70
2024-04-18T15:32:55.924Z,53.60
2024-04-18T15:35:23.124Z,53.60
2024-04-18T15:37:50.214Z,53.70
2024-04-18T15:40:18.212Z,53.70
2024-04-18T15:42:45.682Z,53.70
2024-04-18T15:45:12.919Z,53.80
2024-04-18T15:47:40.256Z,53.70
2024-04-18T15:52:54.772Z,53.50
2024-04-18T15:55:40.561Z,53.60
2024-04-18T15:58:07.687Z,53.60
2024-04-18T16:00:34.936Z,53.60
2024-04-18T16:03:02.098Z,53.50
2024-04-18T16:05:32.006Z,53.50
2024-04-18T16:07:59.138Z,53.60
2024-04-18T16:10:26.416Z,53.50
2024-04-18T16:12:53.521Z,53.50
2024-04-18T16:15:20.791Z,53.30
2024-04-18T16:17:47.921Z,53.10
2024-04-18T16:20:15.203Z,52.90
2024-04-18T16:22:44.980Z,53.00
2024-04-18T16:27:56.847Z,53.10
2024-04-18T16:30:24.023Z,53.20
2024-04-18T16:32:51.354Z,53.50
2024-04-18T16:35:18.634Z,53.60
2024-04-18T16:37:48.421Z,53.80
2024-04-18T16:40:15.796Z,53.90
2024-04-18T16:42:43.056Z,54.00
2024-04-18T16:47:55.104Z,53.80
2024-04-18T16:50:22.348Z,53.90
2024-04-18T16:52:52.237Z,54.30
2024-04-18T16:55:19.404Z,54.40
2024-04-18T16:57:46.665Z,54.30
2024-04-18T17:00:14.554Z,54.20
2024-04-18T17:02:41.929Z,54.20
2024-04-18T17:07:56.326Z,54.50
2024-04-18T17:10:23.475Z,54.60
2024-04-18T17:12:50.655Z,54.70
2024-04-18T17:15:17.891Z,54.70
2024-04-18T17:17:45.180Z,54.70
2024-04-18T17:20:12.369Z,54.70
2024-04-18T17:22:39.616Z,54.70
2024-04-18T17:25:09.568Z,54.60
2024-04-18T17:27:36.798Z,54.60
2024-04-18T17:30:04.609Z,54.60
2024-04-18T17:32:31.773Z,54.70
2024-04-18T17:34:59.010Z,54.80
2024-04-18T17:37:26.214Z,55.40
2024-04-18T17:39:53.543Z,55.00
2024-04-18T17:42:23.480Z,55.00
2024-04-18T17:44:50.714Z,55.10
2024-04-18T17:47:17.946Z,55.10
2024-04-18T17:49:45.243Z,55.20
2024-04-18T17:52:12.451Z,55.30
2024-04-18T17:54:39.874Z,55.40
2024-04-18T17:57:07.246Z,55.40
2024-04-18T18:02:21.738Z,55.50
2024-04-18T18:04:49.006Z,55.40
2024-04-18T18:07:16.141Z,55.40
2024-04-18T18:09:43.436Z,55.40
2024-04-18T18:12:10.758Z,55.50
2024-04-18T18:14:40.634Z,55.60
2024-04-18T18:17:07.890Z,55.80
2024-04-18T18:19:35.170Z,55.80
2024-04-18T18:22:03.317Z,55.90
2024-04-18T18:24:30.570Z,55.90
2024-04-18T18:26:57.983Z,55.90
2024-04-18T18:29:25.128Z,55.90
2024-04-18T18:31:55.030Z,56.00
2024-04-18T18:34:22.181Z,56.10
2024-04-18T18:39:34.020Z,56.20
2024-04-18T18:42:01.315Z,56.20
2024-04-18T18:44:28.615Z,56.30
2024-04-18T18:46:58.567Z,56.30
2024-04-18T18:49:26.255Z,56.40
2024-04-18T18:51:53.661Z,56.40
2024-04-18T18:54:21.106Z,56.50
2024-04-18T18:56:48.248Z,56.80
2024-04-18T18:59:15.485Z,57.00
2024-04-18T19:01:42.682Z,57.10
2024-04-18T19:04:12.704Z,57.30
2024-04-18T19:06:40.266Z,57.60
2024-04-18T19:09:07.728Z,57.50
2024-04-18T19:11:34.863Z,57.50
2024-04-18T19:14:02.160Z,57.60
2024-04-18T19:16:29.370Z,57.60
2024-04-18T19:18:56.657Z,57.50
2024-04-18T19:21:26.576Z,57.50
2024-04-18T19:23:53.861Z,57.50
2024-04-18T19:26:21.055Z,57.40
2024-04-18T19:28:48.266Z,57.20
2024-04-18T19:31:15.393Z,57.10
2024-04-18T19:33:42.747Z,57.10
2024-04-18T19:36:10.007Z,57.00
2024-04-18T19:38:39.942Z,56.90
2024-04-18T19:41:07.173Z,56.70
2024-04-18T19:46:19.105Z,56.70
2024-04-18T19:48:46.365Z,56.70
2024-04-18T19:51:13.693Z,57.20
2024-04-18T19:53:43.640Z,56.60
2024-04-18T19:56:10.799Z,56.60
2024-04-18T19:58:38.009Z,56.60
2024-04-18T20:01:06.903Z,56.60
2024-04-18T20:06:19.070Z,56.50
2024-04-18T20:08:48.815Z,56.40
2024-04-18T20:14:00.917Z,56.40
2024-04-18T20:16:28.122Z,56.60
2024-04-18T20:18:55.691Z,56.70
2024-04-18T20:21:22.961Z,56.80
2024-04-18T20:23:53.152Z,56.90
2024-04-18T20:26:20.356Z,56.90
2024-04-18T20:28:47.468Z,56.80
2024-04-18T20:31:14.589Z,56.70
2024-04-18T20:33:41.801Z,56.70
2024-04-18T20:36:09.097Z,56.70
2024-04-18T20:38:36.262Z,56.80
2024-04-18T20:41:06.219Z,56.80
2024-04-18T20:46:22.449Z,56.80
2024-04-18T20:48:49.739Z,56.90
2024-04-18T20:51:17.041Z,56.80
2024-04-18T20:53:46.157Z,56.80
2024-04-18T20:56:16.191Z,56.90
2024-04-18T20:58:43.540Z,56.90
2024-04-18T21:01:11.030Z,56.90
2024-04-18T21:03:38.346Z,56.90
2024-04-18T21:06:05.845Z,56.90
2024-04-18T21:08:33.860Z,56.90
2024-04-18T21:13:48.700Z,56.80
2024-04-18T21:16:15.839Z,56.80
2024-04-18T21:18:43.162Z,56.70
2024-04-18T21:23:55.196Z,56.70
2024-04-18T21:26:22.352Z,56.70
2024-04-18T21:28:52.354Z,56.80
2024-04-18T21:31:19.644Z,56.90
2024-04-18T21:36:32.235Z,56.90
2024-04-18T21:39:00.813Z,56.80
2024-04-18T21:41:28.837Z,56.80
2024-04-18T21:43:58.664Z,56.80
2024-04-18T21:46:25.980Z,56.70
2024-04-18T21:48:53.244Z,56.80
2024-04-18T21:51:20.487Z,56.90
2024-04-18T21:53:47.699Z,56.90
2024-04-18T21:56:14.947Z,56.80
2024-04-18T21:58:42.290Z,56.80
2024-04-18T22:01:12.217Z,56.80
2024-04-18T22:03:39.386Z,56.80
2024-04-18T22:06:07.979Z,56.80
2024-04-18T22:08:35.227Z,56.80
2024-04-18T22:11:02.407Z,56.80
2024-04-18T22:13:29.594Z,56.80
2024-04-18T22:15:56.711Z,56.90
2024-04-18T22:18:27.222Z,56.90
2024-04-18T22:23:39.218Z,57.00
2024-04-18T22:26:06.387Z,57.00
2024-04-18T22:28:33.513Z,57.10
2024-04-18T22:31:00.963Z,57.10
2024-04-18T22:33:30.815Z,57.10
2024-04-18T22:35:58.148Z,57.10
2024-04-18T22:38:25.415Z,57.00
2024-04-18T22:40:52.795Z,56.90
2024-04-18T22:46:05.057Z,56.90
2024-04-18T22:48:34.960Z,56.90
2024-04-18T22:51:02.173Z,56.90
2024-04-18T22:53:29.437Z,56.90
2024-04-18T22:55:57.429Z,56.90
2024-04-18T22:58:24.729Z,56.90
2024-04-18T23:00:51.933Z,57.00
2024-04-18T23:03:19.268Z,57.00
2024-04-18T23:05:49.519Z,56.90
2024-04-18T23:08:16.756Z,56.90
2024-04-18T23:10:43.868Z,57.00
2024-04-18T23:13:11.143Z,56.90
2024-04-18T23:15:38.282Z,57.00
2024-04-18T23:18:05.991Z,57.10
2024-04-18T23:20:33.350Z,57.10
2024-04-18T23:23:03.215Z,57.20
2024-04-18T23:25:31.153Z,57.20
2024-04-18T23:27:58.268Z,57.30
2024-04-18T23:33:10.385Z,57.30
2024-04-18T23:35:41.890Z,57.30
2024-04-18T23:38:12.834Z,57.40
2024-04-18T23:40:40.063Z,58.00
2024-04-18T23:43:07.161Z,57.50
2024-04-18T23:45:34.729Z,57.50
2024-04-18T23:48:02.097Z,57.50
2024-04-18T23:50:29.289Z,57.60
2024-04-18T23:52:56.523Z,57.60
2024-04-18T23:55:27.022Z,57.70
2024-04-18T23:57:54.117Z,57.80
